Time;durP1;ratioP1;P1;durP2;ratioP2;P2;SDS_P1;SDS_P2;PMS_P1;PMS_P2;Temp;Humidity;BMP_temperature;BMP_pressure;BME280_temperature;BME280_humidity;BME280_pressure;Samples;Min_cycle;Max_cycle;Signal;HPM_P1;HPM_P2
2024/03/19 00:00:41;;;;;;;;;;;;;;;24.85;36.97;101315.66;4099808;29;20345;-60
2024/03/19 00:02:42;;;;;;;;;;;;;;;24.84;36.61;101319.34;4099952;29;20367;-60
2024/03/19 00:04:42;;;;;;;;;;;;;;;24.81;36.60;101311.50;4099985;29;19950;-60
2024/03/19 00:06:43;;;;;;;;;;;;;;;24.81;36.75;101308.81;4084069;29;20436;-60
2024/03/19 00:08:43;;;;;;;;;;;;;;;24.80;36.63;101305.28;4083894;29;20358;-60
2024/03/19 00:10:44;;;;;;;;;;;;;;;24.79;37.09;101311.66;4099703;29;19926;-60
2024/03/19 00:12:44;;;;;;;;;;;;;;;24.80;36.98;101309.81;4099706;29;19929;-59
2024/03/19 00:14:45;;;;;;;;;;;;;;;24.83;36.91;101304.16;4099702;29;19933;-59
2024/03/19 00:16:46;;;;;;;;;;;;;;;24.81;36.60;101312.38;4099467;29;20097;-58
2024/03/19 00:18:47;;;;;;;;;;;;;;;24.82;36.71;101305.16;4099440;29;19926;-59
2024/03/19 00:20:47;;;;;;;;;;;;;;;24.83;36.82;101304.16;4099580;29;20174;-58
2024/03/19 00:22:48;;;;;;;;;;;;;;;24.85;36.91;101302.22;4099533;29;19931;-58
2024/03/19 00:24:49;;;;;;;;;;;;;;;24.84;36.79;101304.03;4083844;29;19934;-59
2024/03/19 00:26:50;;;;;;;;;;;;;;;24.84;36.64;101300.50;4099481;29;20337;-59
2024/03/19 00:28:51;;;;;;;;;;;;;;;24.84;36.84;101300.50;4099446;29;19922;-59
2024/03/19 00:30:52;;;;;;;;;;;;;;;24.81;36.91;101303.44;4098971;28;19926;-59
2024/03/19 00:32:53;;;;;;;;;;;;;;;24.79;36.91;101306.28;4099489;29;20045;-59
2024/03/19 00:34:53;;;;;;;;;;;;;;;24.77;36.94;101310.94;4099286;29;20393;-59
2024/03/19 00:36:54;;;;;;;;;;;;;;;24.74;36.76;101313.91;4083637;29;19929;-58
2024/03/19 00:38:55;;;;;;;;;;;;;;;24.74;36.92;101310.34;4099270;29;20374;-59
2024/03/19 00:40:55;;;;;;;;;;;;;;;24.71;37.03;101304.22;4099523;29;20421;-59
2024/03/19 00:42:56;;;;;;;;;;;;;;;24.71;36.92;101303.41;4099230;29;19981;-59
2024/03/19 00:44:58;;;;;;;;;;;;;;;24.74;36.99;101310.34;4098738;29;19923;-59
2024/03/19 00:46:59;;;;;;;;;;;;;;;24.73;36.99;101314.88;4099076;29;19946;-59
2024/03/19 00:49:01;;;;;;;;;;;;;;;24.72;36.91;101305.94;4083393;29;19926;-59
2024/03/19 00:51:02;;;;;;;;;;;;;;;24.74;36.88;101313.91;4098777;29;19945;-60
2024/03/19 00:53:02;;;;;;;;;;;;;;;24.74;37.02;101308.53;4099109;29;19922;-58
2024/03/19 00:55:04;;;;;;;;;;;;;;;24.75;36.72;101315.56;4098916;29;19922;-59
2024/03/19 00:57:04;;;;;;;;;;;;;;;24.76;36.92;101308.38;4083386;29;19922;-59
2024/03/19 00:59:05;;;;;;;;;;;;;;;24.76;36.92;101308.38;4098729;29;19922;-59
2024/03/19 01:01:06;;;;;;;;;;;;;;;24.74;36.95;101303.13;4098813;29;19922;-59
2024/03/19 01:03:08;;;;;;;;;;;;;;;24.73;36.95;101304.13;4099206;29;19923;-59
2024/03/19 01:05:09;;;;;;;;;;;;;;;24.70;36.72;101299.00;4099053;29;19922;-59
2024/03/19 01:07:10;;;;;;;;;;;;;;;24.67;37.21;101305.50;4098945;29;20385;-59
2024/03/19 01:09:14;;;;;;;;;;;;;;;24.65;37.15;101302.03;4098922;29;19977;-59
2024/03/19 01:11:15;;;;;;;;;;;;;;;24.65;36.96;101307.41;4098782;29;19922;-59
2024/03/19 01:13:15;;;;;;;;;;;;;;;24.63;36.87;101304.03;4098492;29;19926;-59
2024/03/19 01:15:16;;;;;;;;;;;;;;;24.64;37.13;101307.56;4098714;29;19929;-59
2024/03/19 01:17:17;;;;;;;;;;;;;;;24.65;36.85;101302.03;4098688;29;19930;-59
2024/03/19 01:19:17;;;;;;;;;;;;;;;24.67;37.13;101293.91;4098833;29;19922;-59
2024/03/19 01:21:18;;;;;;;;;;;;;;;24.68;36.83;101298.25;4098669;29;19926;-59
2024/03/19 01:23:18;;;;;;;;;;;;;;;24.66;36.75;101295.72;4098613;29;19950;-59
2024/03/19 01:25:19;;;;;;;;;;;;;;;24.66;36.76;101294.88;4098712;29;19937;-58
2024/03/19 01:27:20;;;;;;;;;;;;;;;24.67;36.84;101296.59;4098641;29;19933;-58
2024/03/19 01:29:20;;;;;;;;;;;;;;;24.67;36.89;101293.91;4098318;29;19978;-58
2024/03/19 01:31:21;;;;;;;;;;;;;;;24.65;36.90;101293.97;4098543;29;20382;-58
2024/03/19 01:33:21;;;;;;;;;;;;;;;24.49;36.81;101272.94;4098362;29;20357;-58
2024/03/19 01:35:22;;;;;;;;;;;;;;;24.63;36.88;101297.78;4098513;29;20464;-58
2024/03/19 01:37:22;;;;;;;;;;;;;;;24.63;36.86;101293.28;4098701;29;20018;-58
2024/03/19 01:39:23;;;;;;;;;;;;;;;24.62;37.01;101291.56;4082656;29;20041;-59
2024/03/19 01:41:24;;;;;;;;;;;;;;;24.60;36.99;101285.47;4098203;29;19922;-58
2024/03/19 01:43:24;;;;;;;;;;;;;;;24.60;36.99;101284.63;4098017;29;19961;-58
2024/03/19 01:45:25;;;;;;;;;;;;;;;24.59;37.07;101282.91;4098573;29;19922;-57
2024/03/19 01:47:26;;;;;;;;;;;;;;;24.59;36.77;101281.06;4098532;29;20445;-58
2024/03/19 01:49:26;;;;;;;;;;;;;;;24.60;36.80;101282.78;4098358;29;19922;-57
2024/03/19 01:51:27;;;;;;;;;;;;;;;24.61;37.01;101289.03;4098049;29;19930;-58
2024/03/19 01:53:27;;;;;;;;;;;;;;;24.60;37.00;101281.94;4098498;29;19922;-58
2024/03/19 01:55:28;;;;;;;;;;;;;;;24.62;36.76;101277.25;4098439;29;20478;-58
2024/03/19 01:57:29;;;;;;;;;;;;;;;24.62;36.97;101286.19;4098289;29;19926;-59
2024/03/19 01:59:30;;;;;;;;;;;;;;;24.62;36.95;101280.81;4098423;29;19923;-58
2024/03/19 02:01:30;;;;;;;;;;;;;;;24.60;36.80;101285.47;4098457;29;19926;-57
2024/03/19 02:03:31;;;;;;;;;;;;;;;24.58;36.99;101282.03;4098172;29;19930;-59
2024/03/19 02:05:32;;;;;;;;;;;;;;;24.58;36.88;101279.34;4098463;29;20283;-59
2024/03/19 02:07:33;;;;;;;;;;;;;;;24.56;36.72;101281.34;4098047;29;19929;-59
2024/03/19 02:09:33;;;;;;;;;;;;;;;24.56;37.02;101281.34;4098198;29;19962;-58
2024/03/19 02:11:35;;;;;;;;;;;;;;;24.54;37.00;101281.44;4097795;29;19922;-58
2024/03/19 02:13:35;;;;;;;;;;;;;;;24.54;36.79;101272.53;4098368;29;19922;-58
2024/03/19 02:15:36;;;;;;;;;;;;;;;24.54;36.86;101268.00;4098082;29;19929;-58
2024/03/19 02:17:37;;;;;;;;;;;;;;;24.54;37.00;101280.63;4098102;29;19927;-58
2024/03/19 02:19:38;;;;;;;;;;;;;;;24.53;36.74;101279.78;4098269;29;19923;-59
2024/03/19 02:21:38;;;;;;;;;;;;;;;24.54;36.80;101281.44;4098393;29;20025;-59
2024/03/19 02:23:41;;;;;;;;;;;;;;;24.56;36.95;101281.34;4097923;29;20075;-59
2024/03/19 02:25:41;;;;;;;;;;;;;;;24.55;36.86;101285.00;4097678;29;19922;-59
2024/03/19 02:27:43;;;;;;;;;;;;;;;24.55;36.65;101287.69;4098000;29;20305;-59
2024/03/19 02:29:45;;;;;;;;;;;;;;;24.54;36.60;101281.44;4098064;29;19922;-59
2024/03/19 02:31:45;;;;;;;;;;;;;;;24.55;36.77;101282.31;4097839;29;19922;-59
2024/03/19 02:33:46;;;;;;;;;;;;;;;24.54;36.98;101280.63;4098198;29;19922;-59
2024/03/19 02:35:46;;;;;;;;;;;;;;;24.53;36.79;101278.91;4097966;29;20305;-60
2024/03/19 02:37:47;;;;;;;;;;;;;;;24.53;36.86;101270.84;4097792;29;19922;-59
2024/03/19 02:39:47;;;;;;;;;;;;;;;24.51;36.73;101270.97;4098029;29;19922;-59
2024/03/19 02:41:48;;;;;;;;;;;;;;;24.49;36.71;101272.94;4097777;29;20279;-59
2024/03/19 02:43:49;;;;;;;;;;;;;;;24.49;36.89;101277.47;4097854;29;19981;-59
2024/03/19 02:45:50;;;;;;;;;;;;;;;24.49;36.92;101277.47;4082168;29;19934;-59
2024/03/19 02:47:50;;;;;;;;;;;;;;;24.46;37.02;101281.28;4097931;29;20166;-59
2024/03/19 02:49:51;;;;;;;;;;;;;;;24.48;36.75;101276.59;4097702;29;19922;-59
2024/03/19 02:51:51;;;;;;;;;;;;;;;24.47;36.80;101280.28;4097461;29;19989;-59
2024/03/19 02:53:52;;;;;;;;;;;;;;;24.49;37.05;101274.78;4098536;28;19922;-60
2024/03/19 02:55:53;;;;;;;;;;;;;;;24.48;36.99;101276.59;4100445;29;19965;-60
2024/03/19 02:57:54;;;;;;;;;;;;;;;24.50;37.15;101280.03;4100951;29;20377;-59
2024/03/19 02:59:55;;;;;;;;;;;;;;;24.50;36.94;101277.34;4100989;29;19941;-59
2024/03/19 03:01:58;;;;;;;;;;;;;;;24.53;36.53;101276.22;4100579;29;20035;-59
2024/03/19 03:03:59;;;;;;;;;;;;;;;24.49;36.87;101278.31;4100862;29;19962;-59
2024/03/19 03:06:00;;;;;;;;;;;;;;;24.48;36.62;101270.38;4100676;29;20442;-59
2024/03/19 03:08:00;;;;;;;;;;;;;;;24.47;36.69;101287.50;4100689;29;19926;-58
2024/03/19 03:10:03;;;;;;;;;;;;;;;24.45;36.81;101278.69;4100088;29;19929;-59
2024/03/19 03:12:04;;;;;;;;;;;;;;;24.44;37.01;101282.41;4100574;29;19934;-59
2024/03/19 03:14:04;;;;;;;;;;;;;;;24.42;36.98;101284.38;4100601;29;20318;-59
2024/03/19 03:16:05;;;;;;;;;;;;;;;24.42;36.87;101284.38;4100720;29;20337;-59
2024/03/19 03:18:05;;;;;;;;;;;;;;;24.43;36.89;101280.69;4100566;29;20353;-59
2024/03/19 03:20:06;;;;;;;;;;;;;;;24.43;36.87;101281.53;4100608;29;20013;-59
2024/03/19 03:22:07;;;;;;;;;;;;;;;24.45;36.86;101287.66;4100478;29;19929;-59
2024/03/19 03:24:08;;;;;;;;;;;;;;;24.45;36.60;101286.78;4100215;29;19922;-59
2024/03/19 03:26:08;;;;;;;;;;;;;;;24.46;36.81;101283.09;4100464;29;19923;-60
2024/03/19 03:28:09;;;;;;;;;;;;;;;24.46;36.95;101286.66;4100454;29;20384;-59
2024/03/19 03:30:11;;;;;;;;;;;;;;;24.46;36.70;101281.28;4100493;29;20016;-59
2024/03/19 03:32:11;;;;;;;;;;;;;;;24.45;37.02;101279.56;4100152;29;19978;-59
2024/03/19 03:34:12;;;;;;;;;;;;;;;24.44;36.96;101280.56;4100145;29;19934;-60
2024/03/19 03:36:13;;;;;;;;;;;;;;;24.43;36.61;101280.69;4100281;29;19962;-60
2024/03/19 03:38:13;;;;;;;;;;;;;;;24.42;36.80;101279.00;4099963;29;19926;-60
2024/03/19 03:40:17;;;;;;;;;;;;;;;24.39;37.05;101285.47;4100067;29;20321;-59
2024/03/19 03:42:18;;;;;;;;;;;;;;;24.39;37.04;101286.31;4100212;29;19923;-59
2024/03/19 03:44:19;;;;;;;;;;;;;;;24.38;36.95;101286.47;4100186;29;19922;-59
2024/03/19 03:46:20;;;;;;;;;;;;;;;24.38;36.93;101289.16;4100303;29;19923;-59
2024/03/19 03:48:20;;;;;;;;;;;;;;;24.36;36.88;101286.59;4100236;29;19949;-59
2024/03/19 03:50:21;;;;;;;;;;;;;;;24.37;36.83;101290.97;4100054;29;19922;-59
2024/03/19 03:52:21;;;;;;;;;;;;;;;24.38;37.10;101287.31;4100160;29;19929;-59
2024/03/19 03:54:22;;;;;;;;;;;;;;;24.39;36.83;101290.84;4099888;29;19930;-58
2024/03/19 03:56:23;;;;;;;;;;;;;;;24.39;36.82;101291.69;4100316;29;20476;-59
2024/03/19 03:58:23;;;;;;;;;;;;;;;24.41;37.03;101286.19;4099992;29;19969;-59
2024/03/19 04:00:24;;;;;;;;;;;;;;;24.42;37.16;101292.44;4100048;29;20306;-59
2024/03/19 04:02:24;;;;;;;;;;;;;;;24.43;37.03;101289.59;4100025;29;20453;-60
2024/03/19 04:04:25;;;;;;;;;;;;;;;24.43;36.97;101292.28;4099584;28;19922;-59
2024/03/19 04:06:26;;;;;;;;;;;;;;;24.41;36.88;101291.56;4099894;29;20232;-59
2024/03/19 04:08:26;;;;;;;;;;;;;;;24.39;37.02;101291.69;4099626;29;20386;-59
2024/03/19 04:10:27;;;;;;;;;;;;;;;24.36;37.04;101294.66;4084008;29;19977;-59
2024/03/19 04:12:28;;;;;;;;;;;;;;;24.35;36.88;101297.47;4099657;29;19923;-59
2024/03/19 04:14:28;;;;;;;;;;;;;;;24.34;37.07;101288.56;4083865;29;20005;-59
2024/03/19 04:16:29;;;;;;;;;;;;;;;24.33;36.89;101284.16;4099440;29;20317;-59
2024/03/19 04:18:29;;;;;;;;;;;;;;;24.33;36.92;101286.00;4099545;29;19950;-58
2024/03/19 04:20:30;;;;;;;;;;;;;;;24.34;36.99;101274.25;4099779;29;19950;-58
2024/03/19 04:22:35;;;;;;;;;;;;;;;24.33;37.17;101283.31;4099407;29;19926;-59
2024/03/19 04:24:36;;;;;;;;;;;;;;;24.36;36.78;101281.22;4099544;29;19922;-59
2024/03/19 04:26:38;;;;;;;;;;;;;;;24.36;36.66;101278.53;4083966;29;20335;-58
2024/03/19 04:28:38;;;;;;;;;;;;;;;24.36;36.92;101283.91;4099414;29;19923;-59
2024/03/19 04:30:39;;;;;;;;;;;;;;;24.35;37.06;101281.34;4099374;29;19977;-59
2024/03/19 04:32:40;;;;;;;;;;;;;;;24.37;37.10;101279.38;4099325;29;20096;-58
2024/03/19 04:34:41;;;;;;;;;;;;;;;24.35;36.66;101282.19;4099284;29;19949;-58
2024/03/19 04:36:41;;;;;;;;;;;;;;;24.34;36.91;101283.19;4099034;29;20012;-59
2024/03/19 04:38:42;;;;;;;;;;;;;;;24.32;36.83;101281.63;4099281;29;20418;-59
2024/03/19 04:40:42;;;;;;;;;;;;;;;24.31;37.00;101282.59;4099381;29;19922;-59
2024/03/19 04:42:43;;;;;;;;;;;;;;;24.30;36.92;101276.34;4099265;29;20402;-58
2024/03/19 04:44:44;;;;;;;;;;;;;;;24.29;37.17;101277.34;4099235;29;19926;-59
2024/03/19 04:46:45;;;;;;;;;;;;;;;24.28;37.01;101283.72;4099239;29;20024;-59
2024/03/19 04:48:45;;;;;;;;;;;;;;;24.27;37.01;101284.69;4099341;29;19922;-59
2024/03/19 04:50:46;;;;;;;;;;;;;;;24.26;36.95;101288.34;4098755;29;19929;-59
2024/03/19 04:52:46;;;;;;;;;;;;;;;24.27;36.98;101295.44;4099118;29;19969;-59
2024/03/19 04:54:47;;;;;;;;;;;;;;;24.28;36.82;101293.59;4098960;29;20354;-59
2024/03/19 04:56:47;;;;;;;;;;;;;;;24.30;36.99;101303.22;4099054;29;19954;-58
2024/03/19 04:58:48;;;;;;;;;;;;;;;24.30;36.77;101303.22;4099163;29;20013;-59
2024/03/19 05:00:49;;;;;;;;;;;;;;;24.32;37.02;101314.72;4098910;29;19926;-58
2024/03/19 05:02:50;;;;;;;;;;;;;;;24.30;37.05;101311.28;4099131;29;19926;-58
2024/03/19 05:04:50;;;;;;;;;;;;;;;24.30;36.63;101305.91;4098999;29;20397;-59
2024/03/19 05:06:52;;;;;;;;;;;;;;;24.31;36.93;101312.16;4098673;29;20400;-59
2024/03/19 05:08:53;;;;;;;;;;;;;;;24.29;37.00;101311.44;4098763;29;20271;-59
2024/03/19 05:10:53;;;;;;;;;;;;;;;24.27;36.67;101308.88;4099098;29;19969;-58
2024/03/19 05:12:55;;;;;;;;;;;;;;;24.27;36.78;101316.94;4098794;29;20393;-59
2024/03/19 05:14:55;;;;;;;;;;;;;;;24.26;37.00;101307.16;4098621;29;19922;-59
2024/03/19 05:16:56;;;;;;;;;;;;;;;24.25;36.97;101305.47;4098025;28;19930;-59
2024/03/19 05:18:57;;;;;;;;;;;;;;;24.22;36.86;101301.19;4098884;29;19945;-59
2024/03/19 05:20:57;;;;;;;;;;;;;;;24.22;37.09;101300.34;4098389;29;19922;-59
2024/03/19 05:22:58;;;;;;;;;;;;;;;24.24;37.07;101306.44;4098423;29;19923;-59
2024/03/19 05:24:59;;;;;;;;;;;;;;;24.26;36.84;101304.47;4098809;29;19930;-59
2024/03/19 05:26:59;;;;;;;;;;;;;;;24.26;36.58;101303.63;4098374;29;20309;-59
2024/03/19 05:29:00;;;;;;;;;;;;;;;24.25;36.59;101305.47;4098546;29;19930;-58
2024/03/19 05:31:00;;;;;;;;;;;;;;;24.26;36.58;101300.94;4098418;29;19927;-59
2024/03/19 05:33:01;;;;;;;;;;;;;;;24.26;37.04;101307.16;4098469;29;19922;-59
2024/03/19 05:35:01;;;;;;;;;;;;;;;24.25;36.84;101316.22;4098033;29;19922;-58
2024/03/19 05:37:02;;;;;;;;;;;;;;;24.25;36.91;101318.91;4098458;29;19922;-58
2024/03/19 05:39:08;;;;;;;;;;;;;;;24.23;36.85;101310.13;4098311;29;20040;-59
2024/03/19 05:41:10;;;;;;;;;;;;;;;24.22;36.92;101309.25;4098593;29;19922;-59
2024/03/19 05:43:10;;;;;;;;;;;;;;;24.21;36.82;101310.25;4098453;29;19922;-59
2024/03/19 05:45:11;;;;;;;;;;;;;;;24.21;36.78;101317.47;4098469;29;19926;-59
2024/03/19 05:47:14;;;;;;;;;;;;;;;24.20;37.04;101315.75;4098479;29;20325;-59
2024/03/19 05:49:15;;;;;;;;;;;;;;;24.19;36.99;101320.28;4098065;29;20373;-59
2024/03/19 05:51:15;;;;;;;;;;;;;;;24.18;37.04;101317.72;4098101;29;19959;-58
2024/03/19 05:53:16;;;;;;;;;;;;;;;24.18;36.76;101321.25;4098513;29;20414;-59
2024/03/19 05:55:17;;;;;;;;;;;;;;;24.21;36.94;101322.84;4098209;29;19922;-58
2024/03/19 05:57:17;;;;;;;;;;;;;;;24.23;36.75;101331.63;4098346;29;19931;-58
2024/03/19 05:59:18;;;;;;;;;;;;;;;24.23;36.62;101334.31;4098266;29;19945;-58
2024/03/19 06:01:18;;;;;;;;;;;;;;;24.21;36.63;101331.75;4098463;29;20317;-58
2024/03/19 06:03:19;;;;;;;;;;;;;;;24.23;36.91;101335.16;4097854;29;19923;-59
2024/03/19 06:05:20;;;;;;;;;;;;;;;24.23;36.74;101342.38;4098196;29;19922;-62
2024/03/19 06:07:20;;;;;;;;;;;;;;;24.20;36.55;101340.78;4098346;29;19926;-59
2024/03/19 06:09:21;;;;;;;;;;;;;;;24.19;36.81;101338.22;4098185;29;19933;-59
2024/03/19 06:11:21;;;;;;;;;;;;;;;24.18;36.56;101342.75;4098256;29;19927;-59
2024/03/19 06:13:22;;;;;;;;;;;;;;;24.18;36.70;101347.28;4098386;29;19929;-59
2024/03/19 06:15:22;;;;;;;;;;;;;;;24.16;36.65;101346.56;4098092;29;19926;-60
2024/03/19 06:17:23;;;;;;;;;;;;;;;24.15;36.70;101353.75;4098294;29;20433;-59
2024/03/19 06:19:25;;;;;;;;;;;;;;;24.14;36.87;101349.34;4097860;29;19927;-59
2024/03/19 06:21:25;;;;;;;;;;;;;;;24.14;37.00;101349.34;4098388;29;19922;-59
2024/03/19 06:23:26;;;;;;;;;;;;;;;24.16;36.87;101344.72;4098290;29;19923;-58
2024/03/19 06:25:27;;;;;;;;;;;;;;;24.17;36.65;101343.75;4082459;29;19934;-59
2024/03/19 06:27:28;;;;;;;;;;;;;;;24.18;36.63;101344.56;4098235;28;20405;-59
2024/03/19 06:29:28;;;;;;;;;;;;;;;24.20;36.63;101345.31;4101304;29;19922;-59
2024/03/19 06:31:30;;;;;;;;;;;;;;;24.20;36.66;101343.47;4101369;29;20270;-59
2024/03/19 06:33:31;;;;;;;;;;;;;;;24.18;36.55;101348.13;4101069;29;19968;-58
2024/03/19 06:35:32;;;;;;;;;;;;;;;24.21;36.63;101350.56;4101301;29;19922;-61
2024/03/19 06:37:33;;;;;;;;;;;;;;;24.20;36.84;101351.53;4101103;29;19922;-60
2024/03/19 06:39:33;;;;;;;;;;;;;;;24.18;36.98;101355.34;4101300;29;19996;-60
2024/03/19 06:41:34;;;;;;;;;;;;;;;24.16;36.66;101360.00;4101069;29;19976;-61
2024/03/19 06:43:35;;;;;;;;;;;;;;;24.15;36.96;101356.44;4101261;29;19923;-60
2024/03/19 06:45:36;;;;;;;;;;;;;;;24.15;37.00;101359.13;4101024;29;19922;-60
2024/03/19 06:47:37;;;;;;;;;;;;;;;24.15;36.66;101352.91;4100602;29;20025;-60
2024/03/19 06:49:38;;;;;;;;;;;;;;;24.14;37.09;101352.03;4101098;29;20318;-60
2024/03/19 06:51:39;;;;;;;;;;;;;;;24.12;36.67;101355.84;4100687;29;20374;-60
2024/03/19 06:53:40;;;;;;;;;;;;;;;24.13;37.00;101347.66;4101065;29;20293;-60
2024/03/19 06:55:40;;;;;;;;;;;;;;;24.15;36.68;101347.53;4100755;29;19934;-60
2024/03/19 06:57:42;;;;;;;;;;;;;;;24.15;36.83;101350.22;4101021;29;19998;-59
2024/03/19 06:59:43;;;;;;;;;;;;;;;24.17;36.98;101353.63;4101036;29;20013;-61
2024/03/19 07:01:43;;;;;;;;;;;;;;;24.18;36.77;101360.72;4100476;29;19970;-60
2024/03/19 07:03:45;;;;;;;;;;;;;;;24.17;36.63;101357.19;4100886;29;19997;-62
2024/03/19 07:05:45;;;;;;;;;;;;;;;24.20;36.98;101359.59;4100741;29;20593;-59
2024/03/19 07:07:46;;;;;;;;;;;;;;;24.20;36.96;101359.59;4100726;29;19973;-59
2024/03/19 07:09:48;;;;;;;;;;;;;;;24.19;36.57;101355.22;4100720;29;19945;-60
2024/03/19 07:11:48;;;;;;;;;;;;;;;24.17;36.77;101356.31;4100613;29;19922;-59
2024/03/19 07:13:49;;;;;;;;;;;;;;;24.16;37.04;101357.31;4100630;29;19958;-59
2024/03/19 07:15:49;;;;;;;;;;;;;;;24.15;36.88;101356.44;4100121;29;19926;-59
2024/03/19 07:17:51;;;;;;;;;;;;;;;24.14;36.76;101351.22;4100601;29;19969;-59
2024/03/19 07:19:54;;;;;;;;;;;;;;;24.14;36.72;101362.78;4100596;29;19933;-59
2024/03/19 07:21:54;;;;;;;;;;;;;;;24.12;36.96;101355.84;4100439;29;19923;-59
2024/03/19 07:23:55;;;;;;;;;;;;;;;24.13;36.88;101360.25;4100453;29;20468;-59
2024/03/19 07:25:55;;;;;;;;;;;;;;;24.17;36.67;101369.75;4100670;29;19926;-60
2024/03/19 07:27:57;;;;;;;;;;;;;;;24.17;36.65;101370.63;4100214;29;20386;-60
2024/03/19 07:29:57;;;;;;;;;;;;;;;24.18;36.63;101375.03;4100493;29;19968;-59
2024/03/19 07:31:59;;;;;;;;;;;;;;;24.20;36.54;101377.56;4099894;29;19948;-59
2024/03/19 07:33:59;;;;;;;;;;;;;;;24.21;36.90;101372.06;4100449;29;19922;-61
2024/03/19 07:36:00;;;;;;;;;;;;;;;24.21;36.97;101380.13;4100481;29;19929;-58
2024/03/19 07:38:00;;;;;;;;;;;;;;;24.20;36.98;101377.56;4100356;29;19927;-58
2024/03/19 07:40:01;;;;;;;;;;;;;;;24.21;36.87;101390.03;4099452;28;19993;-59
2024/03/19 07:42:03;;;;;;;;;;;;;;;24.19;36.79;101392.84;4100253;29;20033;-59
2024/03/19 07:44:04;;;;;;;;;;;;;;;24.17;37.08;101404.69;4100325;29;20472;-58
2024/03/19 07:46:05;;;;;;;;;;;;;;;24.15;36.75;101399.44;4099776;29;19927;-59
2024/03/19 07:48:06;;;;;;;;;;;;;;;24.15;36.90;101403.97;4100156;29;19990;-59
2024/03/19 07:50:07;;;;;;;;;;;;;;;24.15;36.78;101406.66;4099898;29;20444;-59
2024/03/19 07:52:08;;;;;;;;;;;;;;;24.16;36.80;101411.06;4100106;29;19922;-59
2024/03/19 07:54:09;;;;;;;;;;;;;;;24.15;36.88;101407.50;4100287;29;19945;-59
2024/03/19 07:56:10;;;;;;;;;;;;;;;24.15;36.97;101410.19;4100077;29;20390;-59
2024/03/19 07:58:11;;;;;;;;;;;;;;;24.16;36.78;101416.44;4099921;29;19973;-60
2024/03/19 08:00:14;;;;;;;;;;;;;;;24.18;36.69;101422.53;4099627;29;19922;-59
2024/03/19 08:02:14;;;;;;;;;;;;;;;24.20;36.94;101425.94;4100023;29;19922;-59
2024/03/19 08:04:15;;;;;;;;;;;;;;;24.20;36.87;101429.47;4100066;29;20393;-58
2024/03/19 08:06:15;;;;;;;;;;;;;;;24.19;36.59;101427.78;4100078;29;19922;-58
2024/03/19 08:08:16;;;;;;;;;;;;;;;24.20;36.93;101424.09;4083934;29;19974;-59
2024/03/19 08:10:18;;;;;;;;;;;;;;;24.20;36.87;101423.25;4099704;29;19930;-59
2024/03/19 08:12:19;;;;;;;;;;;;;;;24.18;36.98;101428.78;4099675;29;20270;-59
2024/03/19 08:14:19;;;;;;;;;;;;;;;24.19;36.55;101430.47;4099379;29;19999;-59
2024/03/19 08:16:21;;;;;;;;;;;;;;;24.19;36.80;101437.66;4099653;29;19922;-59
2024/03/19 08:18:22;;;;;;;;;;;;;;;24.20;36.74;101436.69;4099712;29;19934;-59
2024/03/19 08:20:23;;;;;;;;;;;;;;;24.20;36.78;101436.69;4099775;29;20287;-59
2024/03/19 08:22:24;;;;;;;;;;;;;;;24.20;36.73;101439.38;4099767;29;19965;-59
2024/03/19 08:24:24;;;;;;;;;;;;;;;24.18;36.97;101444.91;4099761;29;20262;-60
2024/03/19 08:26:25;;;;;;;;;;;;;;;24.19;36.69;101446.59;4099746;29;20349;-60
2024/03/19 08:28:26;;;;;;;;;;;;;;;24.17;36.67;101445.88;4099350;29;20365;-60
2024/03/19 08:30:26;;;;;;;;;;;;;;;24.19;36.71;101456.50;4083894;29;19923;-60
2024/03/19 08:32:27;;;;;;;;;;;;;;;24.18;36.75;101449.41;4099480;29;19929;-60
2024/03/19 08:34:28;;;;;;;;;;;;;;;24.20;36.95;101452.81;4099382;29;19922;-59
2024/03/19 08:36:28;;;;;;;;;;;;;;;24.20;36.63;101455.50;4099368;29;19929;-58
2024/03/19 08:38:29;;;;;;;;;;;;;;;24.21;36.74;101451.84;4099554;29;19922;-58
2024/03/19 08:40:30;;;;;;;;;;;;;;;24.22;36.64;101458.94;4099541;29;19926;-58
2024/03/19 08:42:34;;;;;;;;;;;;;;;24.22;36.57;101453.56;4099461;29;19922;-59
2024/03/19 08:44:35;;;;;;;;;;;;;;;24.21;36.61;101452.69;4099404;29;20402;-59
2024/03/19 08:46:35;;;;;;;;;;;;;;;24.22;36.59;101459.78;4099489;29;19929;-59
2024/03/19 08:48:37;;;;;;;;;;;;;;;24.20;36.54;101460.88;4099306;29;19954;-59
2024/03/19 08:50:38;;;;;;;;;;;;;;;24.19;36.82;101467.25;4099098;28;20350;-59
2024/03/19 08:52:38;;;;;;;;;;;;;;;24.18;36.64;101469.09;4098239;29;19926;-59
2024/03/19 08:54:40;;;;;;;;;;;;;;;24.18;36.93;101473.59;4099322;29;19930;-59
2024/03/19 08:56:41;;;;;;;;;;;;;;;24.19;36.66;101473.47;4099299;29;19949;-59
2024/03/19 08:58:43;;;;;;;;;;;;;;;24.22;36.59;101470.53;4098749;29;19926;-59
2024/03/19 09:00:43;;;;;;;;;;;;;;;24.22;36.53;101473.22;4099075;29;20458;-59
2024/03/19 09:02:44;;;;;;;;;;;;;;;24.21;36.66;101465.28;4099137;29;19926;-58
2024/03/19 09:04:44;;;;;;;;;;;;;;;24.24;36.67;101473.09;4098903;29;19958;-59
2024/03/19 09:06:46;;;;;;;;;;;;;;;24.26;36.70;101479.19;4098942;29;20401;-59
2024/03/19 09:08:47;;;;;;;;;;;;;;;24.26;36.65;101472.97;4098878;29;19954;-59
2024/03/19 09:10:50;;;;;;;;;;;;;;;24.26;36.46;101476.50;4099041;29;19954;-59
2024/03/19 09:12:50;;;;;;;;;;;;;;;24.26;36.42;101472.97;4098408;29;20357;-59
2024/03/19 09:14:51;;;;;;;;;;;;;;;24.25;36.60;101480.16;4099137;29;19922;-59
2024/03/19 09:16:51;;;;;;;;;;;;;;;24.24;36.53;101471.25;4098861;29;19930;-58
2024/03/19 09:18:52;;;;;;;;;;;;;;;24.24;36.74;101475.78;4098884;29;19926;-58
2024/03/19 09:20:53;;;;;;;;;;;;;;;24.22;36.51;101472.38;4098782;29;19922;-59
2024/03/19 09:22:54;;;;;;;;;;;;;;;24.21;36.76;101474.19;4098699;29;20064;-58
2024/03/19 09:24:55;;;;;;;;;;;;;;;24.21;36.91;101474.19;4098743;29;19926;-59
2024/03/19 09:26:55;;;;;;;;;;;;;;;24.22;36.37;101473.22;4098425;29;19926;-59
2024/03/19 09:28:56;;;;;;;;;;;;;;;24.23;36.73;101474.94;4098834;29;20461;-58
2024/03/19 09:30:59;;;;;;;;;;;;;;;24.24;36.43;101478.47;4098503;29;19969;-58
2024/03/19 09:33:00;;;;;;;;;;;;;;;24.25;36.40;101480.16;4098570;29;20337;-58
2024/03/19 09:35:01;;;;;;;;;;;;;;;24.26;36.48;101481.03;4098538;29;19923;-58
2024/03/19 09:37:01;;;;;;;;;;;;;;;24.26;36.54;101472.97;4098476;29;19930;-58
2024/03/19 09:39:07;;;;;;;;;;;;;;;24.26;36.40;101470.28;4098491;29;19985;-60
2024/03/19 09:41:08;;;;;;;;;;;;;;;24.26;36.65;101465.75;4098219;29;20419;-59
2024/03/19 09:43:10;;;;;;;;;;;;;;;24.27;36.49;101477.38;4082755;29;19930;-59
2024/03/19 09:45:19;;;;;;;;;;;;;;;24.26;36.43;101472.97;4098591;29;19929;-59
2024/03/19 09:47:22;;;;;;;;;;;;;;;24.27;36.29;101472.00;4098314;29;19957;-59
2024/03/19 09:49:28;;;;;;;;;;;;;;;24.27;36.34;101466.63;4098563;29;20412;-58
2024/03/19 09:51:29;;;;;;;;;;;;;;;24.28;36.30;101474.56;4098199;29;19922;-59
2024/03/19 09:53:32;;;;;;;;;;;;;;;24.28;36.22;101471.88;4098445;29;19929;-59
2024/03/19 09:55:32;;;;;;;;;;;;;;;24.29;36.33;101478.97;4097918;29;19926;-59
2024/03/19 09:57:33;;;;;;;;;;;;;;;24.30;36.27;101477.94;4082566;29;20146;-59
2024/03/19 09:59:34;;;;;;;;;;;;;;;24.24;36.53;101473.94;4098456;29;20338;-62
2024/03/19 10:01:34;;;;;;;;;;;;;;;24.28;36.72;101474.56;4098154;29;20373;-59
2024/03/19 10:03:35;;;;;;;;;;;;;;;24.30;36.21;101469.88;4097990;28;19961;-57
2024/03/19 10:05:35;;;;;;;;;;;;;;;24.31;36.34;101460.84;4097988;29;19973;-58
2024/03/19 10:07:36;;;;;;;;;;;;;;;24.31;36.27;101468.91;4098190;29;19922;-58
2024/03/19 10:09:36;;;;;;;;;;;;;;;24.32;36.61;101470.63;4097911;29;19929;-61
2024/03/19 10:11:37;;;;;;;;;;;;;;;24.33;36.20;101466.97;4098380;29;19922;-57
2024/03/19 10:13:38;;;;;;;;;;;;;;;24.36;36.55;101471.22;4098375;29;19922;-58
2024/03/19 10:15:38;;;;;;;;;;;;;;;24.39;36.19;101465.63;4098061;29;20374;-58
2024/03/19 10:17:39;;;;;;;;;;;;;;;24.37;36.14;101464.88;4098120;29;20413;-59
2024/03/19 10:19:40;;;;;;;;;;;;;;;24.36;36.15;101466.72;4097961;29;19930;-58